createdAt,value
2023-02-11T00:00:15.134Z,6.18
2023-02-11T00:02:41.611Z,6.17
2023-02-11T00:05:08.459Z,6.18
2023-02-11T00:07:35.421Z,6.18
2023-02-11T00:10:03.346Z,6.17
2023-02-11T00:12:30.062Z,6.15
2023-02-11T00:14:57.232Z,6.14
2023-02-11T00:17:23.818Z,6.14
2023-02-11T00:19:51.494Z,6.14
2023-02-11T00:22:18.734Z,6.13
2023-02-11T00:24:45.937Z,6.14
2023-02-11T00:27:12.422Z,6.14
2023-02-11T00:29:39.287Z,6.14
2023-02-11T00:32:07.498Z,6.13
2023-02-11T00:34:35.100Z,6.14
2023-02-11T00:37:02.398Z,6.14
2023-02-11T00:39:29.120Z,6.15
2023-02-11T00:41:55.650Z,6.14
2023-02-11T00:44:22.153Z,6.15
2023-02-11T00:46:48.671Z,6.12
2023-02-11T00:49:15.524Z,6.14
2023-02-11T00:51:42.337Z,6.12
2023-02-11T00:54:08.860Z,6.11
2023-02-11T00:56:36.561Z,6.11
2023-02-11T00:59:03.372Z,6.11
2023-02-11T01:01:29.912Z,6.11
2023-02-11T01:03:56.456Z,6.08
2023-02-11T01:06:23.087Z,6.09
2023-02-11T01:08:49.649Z,6.09
2023-02-11T01:11:19.843Z,6.07
2023-02-11T01:13:47.710Z,6.05
2023-02-11T01:16:15.428Z,6.03
2023-02-11T01:18:44.257Z,5.99
2023-02-11T01:21:11.232Z,5.99
2023-02-11T01:23:37.816Z,5.96
2023-02-11T01:26:04.508Z,5.92
2023-02-11T01:28:31.919Z,5.94
2023-02-11T01:31:00.815Z,5.89
2023-02-11T01:33:27.591Z,5.86
2023-02-11T01:35:54.409Z,5.88
2023-02-11T01:38:24.245Z,5.89
2023-02-11T01:40:57.132Z,5.93
2023-02-11T01:43:26.034Z,5.95
2023-02-11T01:45:58.532Z,5.94
2023-02-11T01:48:33.671Z,5.96
2023-02-11T01:51:06.408Z,5.95
2023-02-11T01:53:54.393Z,5.94
2023-02-11T01:56:41.592Z,5.93
2023-02-11T01:59:16.756Z,5.92
2023-02-11T02:01:49.073Z,5.87
2023-02-11T02:04:19.036Z,5.86
2023-02-11T02:06:53.432Z,5.84
2023-02-11T02:09:25.547Z,5.83
2023-02-11T02:11:52.413Z,5.83
2023-02-11T02:14:19.353Z,5.82
2023-02-11T02:16:46.310Z,5.82
2023-02-11T02:19:37.851Z,5.81
2023-02-11T02:22:53.416Z,5.78
2023-02-11T02:25:42.519Z,5.79
2023-02-11T02:28:23.269Z,5.77
2023-02-11T02:30:58.373Z,5.75
2023-02-11T02:33:32.186Z,5.73
2023-02-11T02:36:06.156Z,5.69
2023-02-11T02:38:40.446Z,5.66
2023-02-11T02:41:14.145Z,5.66
2023-02-11T02:43:44.746Z,5.67
2023-02-11T02:46:15.722Z,5.66
2023-02-11T02:48:43.122Z,5.66
2023-02-11T02:51:30.396Z,5.68
2023-02-11T02:53:59.833Z,5.66
2023-02-11T02:56:47.338Z,5.65
2023-02-11T02:59:45.885Z,5.66
2023-02-11T03:02:24.875Z,5.68
2023-02-11T03:05:01.865Z,5.68
2023-02-11T03:07:38.144Z,5.67
2023-02-11T03:10:15.238Z,5.65
2023-02-11T03:12:44.766Z,5.67
2023-02-11T03:15:13.177Z,5.67
2023-02-11T03:17:44.516Z,5.69
2023-02-11T03:20:14.618Z,5.67
2023-02-11T03:22:57.029Z,5.64
2023-02-11T03:25:31.816Z,5.65
2023-02-11T03:28:12.565Z,5.63
2023-02-11T03:30:45.571Z,5.63
2023-02-11T03:33:23.358Z,5.62
2023-02-11T03:35:57.458Z,5.61
2023-02-11T03:38:32.986Z,5.58
2023-02-11T03:41:02.115Z,5.57
2023-02-11T03:43:34.464Z,5.56
2023-02-11T03:46:03.629Z,5.54
2023-02-11T03:48:35.061Z,5.52
2023-02-11T03:51:04.246Z,5.53
2023-02-11T03:53:30.948Z,5.51
2023-02-11T03:56:01.448Z,5.51
2023-02-11T03:58:28.012Z,5.50
2023-02-11T04:00:54.548Z,5.52
2023-02-11T04:03:21.283Z,5.52
2023-02-11T04:05:49.128Z,5.50
2023-02-11T04:08:15.800Z,5.49
2023-02-11T04:10:42.479Z,5.50
2023-02-11T04:13:08.945Z,5.51
2023-02-11T04:15:35.454Z,5.53
2023-02-11T04:18:03.406Z,5.56
2023-02-11T04:20:30.244Z,5.60
2023-02-11T04:22:56.778Z,5.59
2023-02-11T04:25:23.273Z,5.60
2023-02-11T04:27:49.816Z,5.62
2023-02-11T04:30:16.407Z,5.65
2023-02-11T04:32:42.966Z,5.65
2023-02-11T04:35:10.000Z,5.65
2023-02-11T04:37:36.500Z,5.68
2023-02-11T04:40:03.367Z,5.68
2023-02-11T04:42:30.858Z,5.68
2023-02-11T04:44:57.334Z,5.68
2023-02-11T04:47:23.844Z,5.70
2023-02-11T04:49:50.395Z,5.72
2023-02-11T04:52:18.318Z,5.73
2023-02-11T04:54:44.806Z,5.75
2023-02-11T04:57:11.521Z,5.73
2023-02-11T04:59:38.279Z,5.75
2023-02-11T05:02:05.748Z,5.75
2023-02-11T05:04:32.513Z,5.76
2023-02-11T05:06:59.996Z,5.77
2023-02-11T05:09:26.628Z,5.78
2023-02-11T05:11:54.846Z,5.79
2023-02-11T05:14:21.323Z,5.80
2023-02-11T05:16:47.924Z,5.81
2023-02-11T05:19:14.511Z,5.81
2023-02-11T05:21:53.057Z,5.83
2023-02-11T05:24:23.423Z,5.82
2023-02-11T05:26:49.924Z,5.83
2023-02-11T05:29:16.446Z,5.82
2023-02-11T05:31:42.973Z,5.85
2023-02-11T05:34:09.563Z,5.88
2023-02-11T05:36:37.037Z,5.89
2023-02-11T05:39:03.646Z,5.89
2023-02-11T05:41:30.182Z,5.92
2023-02-11T05:43:56.731Z,5.92
2023-02-11T05:46:23.214Z,5.92
2023-02-11T05:48:49.804Z,5.92
2023-02-11T05:51:16.289Z,5.93
2023-02-11T05:53:43.949Z,5.96
2023-02-11T05:56:11.599Z,5.99
2023-02-11T05:58:38.838Z,6.01
2023-02-11T06:01:05.504Z,6.01
2023-02-11T06:03:32.075Z,6.00
2023-02-11T06:05:58.590Z,6.00
2023-02-11T06:08:25.606Z,6.02
2023-02-11T06:10:53.080Z,6.02
2023-02-11T06:13:19.757Z,6.04
2023-02-11T06:15:56.887Z,6.05
2023-02-11T06:18:23.581Z,6.05
2023-02-11T06:20:50.127Z,6.07
2023-02-11T06:23:16.759Z,6.09
2023-02-11T06:25:43.387Z,6.13
2023-02-11T06:28:10.733Z,6.13
2023-02-11T06:30:38.909Z,6.15
2023-02-11T06:33:07.834Z,6.17
2023-02-11T06:35:35.375Z,6.17
2023-02-11T06:38:02.100Z,6.20
2023-02-11T06:40:28.635Z,6.22
2023-02-11T06:42:55.348Z,6.27
2023-02-11T06:45:21.897Z,6.27
2023-02-11T06:47:51.048Z,6.29
2023-02-11T06:50:17.584Z,6.29
2023-02-11T06:52:45.170Z,6.32
2023-02-11T06:55:13.792Z,6.32
2023-02-11T06:57:40.380Z,6.33
2023-02-11T07:00:07.580Z,6.33
2023-02-11T07:02:34.112Z,6.33
2023-02-11T07:05:01.744Z,6.33
2023-02-11T07:07:28.407Z,6.36
2023-02-11T07:09:55.064Z,6.37
2023-02-11T07:12:21.655Z,6.39
2023-02-11T07:14:48.194Z,6.39
2023-02-11T07:17:15.287Z,6.40
2023-02-11T07:19:41.945Z,6.40
2023-02-11T07:22:08.456Z,6.41
2023-02-11T07:24:34.980Z,6.42
2023-02-11T07:27:01.448Z,6.43
2023-02-11T07:29:27.971Z,6.45
2023-02-11T07:31:55.749Z,6.46
2023-02-11T07:34:22.355Z,6.48
2023-02-11T07:36:50.295Z,6.50
2023-02-11T07:39:17.013Z,6.53
2023-02-11T07:41:44.504Z,6.54
2023-02-11T07:44:11.038Z,6.56
2023-02-11T07:46:37.666Z,6.59
2023-02-11T07:49:04.279Z,6.60
2023-02-11T07:51:31.440Z,6.62
2023-02-11T07:53:59.521Z,6.63
2023-02-11T07:56:27.029Z,6.64
2023-02-11T07:58:54.560Z,6.68
2023-02-11T08:01:25.898Z,6.69
2023-02-11T08:03:53.318Z,6.69
2023-02-11T08:06:21.645Z,6.71
2023-02-11T08:08:48.575Z,6.73
2023-02-11T08:11:17.914Z,6.75
2023-02-11T08:13:44.932Z,6.75
2023-02-11T08:16:20.743Z,6.74
2023-02-11T08:18:47.567Z,6.77
2023-02-11T08:21:14.151Z,6.78
2023-02-11T08:23:42.767Z,6.77
2023-02-11T08:26:12.550Z,6.78
2023-02-11T08:28:42.553Z,6.81
2023-02-11T08:31:13.761Z,6.80
2023-02-11T08:33:41.087Z,6.82
2023-02-11T08:36:09.934Z,6.84
2023-02-11T08:38:36.657Z,6.85
2023-02-11T08:41:03.499Z,6.86
2023-02-11T08:43:30.087Z,6.90
2023-02-11T08:45:56.966Z,6.91
2023-02-11T08:48:24.637Z,6.94
2023-02-11T08:50:52.189Z,6.96
2023-02-11T08:53:18.764Z,6.98
2023-02-11T08:55:50.431Z,7.00
2023-02-11T08:58:19.194Z,7.01
2023-02-11T09:00:46.197Z,7.05
2023-02-11T09:03:13.524Z,7.07
2023-02-11T09:05:50.064Z,7.10
2023-02-11T09:08:17.183Z,7.13
2023-02-11T09:10:43.976Z,7.15
2023-02-11T09:13:10.743Z,7.17
2023-02-11T09:15:37.415Z,7.22
2023-02-11T09:18:05.327Z,7.25
2023-02-11T09:20:32.002Z,7.27
2023-02-11T09:22:59.226Z,7.31
2023-02-11T09:25:26.536Z,7.33
2023-02-11T09:27:53.835Z,7.36
2023-02-11T09:30:20.771Z,7.38
2023-02-11T09:32:47.357Z,7.41
2023-02-11T09:35:14.048Z,7.45
2023-02-11T09:37:40.631Z,7.46
2023-02-11T09:40:07.644Z,7.49
2023-02-11T09:42:46.929Z,7.51
2023-02-11T09:45:25.034Z,7.56
2023-02-11T09:47:57.214Z,7.61
2023-02-11T09:50:32.061Z,7.63
2023-02-11T09:53:03.523Z,7.66
2023-02-11T09:55:38.012Z,7.68
2023-02-11T09:58:11.762Z,7.72
2023-02-11T10:00:54.088Z,7.75
2023-02-11T10:03:54.109Z,7.77
2023-02-11T10:06:36.768Z,7.80
2023-02-11T10:09:25.020Z,7.84
2023-02-11T10:12:04.896Z,7.86
2023-02-11T10:14:32.753Z,7.89
2023-02-11T10:17:18.973Z,7.92
2023-02-11T10:20:01.626Z,7.96
2023-02-11T10:22:37.598Z,8.01
2023-02-11T10:25:18.882Z,8.07
2023-02-11T10:27:45.929Z,8.15
2023-02-11T10:30:37.205Z,8.22
2023-02-11T10:33:15.429Z,8.30
2023-02-11T10:35:43.878Z,8.33
2023-02-11T10:38:11.946Z,8.37
2023-02-11T10:40:38.638Z,8.40
2023-02-11T10:43:11.797Z,8.42
2023-02-11T10:45:45.465Z,8.40
2023-02-11T10:48:39.989Z,8.41
2023-02-11T10:51:18.157Z,8.40
2023-02-11T10:53:45.969Z,8.41
2023-02-11T10:56:25.533Z,8.42
2023-02-11T10:58:59.807Z,8.43
2023-02-11T11:01:42.264Z,8.46
2023-02-11T11:04:30.052Z,8.50
2023-02-11T11:06:57.336Z,8.57
2023-02-11T11:09:43.374Z,8.63
2023-02-11T11:12:42.228Z,8.71
2023-02-11T11:15:23.394Z,8.79
2023-02-11T11:18:20.910Z,8.81
2023-02-11T11:20:59.543Z,8.86
2023-02-11T11:23:27.655Z,8.87
2023-02-11T11:26:04.156Z,8.88
2023-02-11T11:28:38.728Z,8.90
2023-02-11T11:31:12.336Z,8.93
2023-02-11T11:33:43.387Z,8.97
2023-02-11T11:36:13.051Z,9.05
2023-02-11T11:38:46.518Z,9.11
2023-02-11T11:41:15.051Z,9.13
2023-02-11T11:43:54.737Z,9.16
2023-02-11T11:46:28.499Z,9.17
2023-02-11T11:49:05.229Z,9.14
2023-02-11T11:51:33.769Z,9.16
2023-02-11T11:54:02.900Z,9.18
2023-02-11T11:56:33.773Z,9.18
2023-02-11T11:59:06.558Z,9.17
2023-02-11T12:02:02.006Z,9.17
2023-02-11T12:04:56.356Z,9.19
2023-02-11T12:07:50.311Z,9.22
2023-02-11T12:10:26.046Z,9.22
2023-02-11T12:13:23.015Z,9.25
2023-02-11T12:15:55.607Z,9.27
2023-02-11T12:18:46.155Z,9.32
2023-02-11T12:21:49.478Z,9.38
2023-02-11T12:24:34.656Z,9.42
2023-02-11T12:27:10.860Z,9.47
2023-02-11T12:30:12.225Z,9.51
2023-02-11T12:32:53.573Z,9.52
2023-02-11T12:35:37.124Z,9.55
2023-02-11T12:38:16.109Z,9.57
2023-02-11T12:40:45.613Z,9.63
2023-02-11T12:43:25.378Z,9.68
2023-02-11T12:46:27.892Z,9.69
2023-02-11T12:49:11.968Z,9.74
2023-02-11T12:51:55.698Z,9.77
2023-02-11T12:54:29.503Z,9.73
2023-02-11T12:57:05.984Z,9.72
2023-02-11T12:59:50.981Z,9.68
2023-02-11T13:02:34.858Z,9.68
2023-02-11T13:05:15.919Z,9.70
2023-02-11T13:07:46.362Z,9.72
2023-02-11T13:10:13.886Z,9.76
2023-02-11T13:13:03.434Z,9.84
2023-02-11T13:15:31.384Z,9.88
2023-02-11T13:18:20.622Z,9.90
2023-02-11T13:20:57.491Z,9.94
2023-02-11T13:23:34.525Z,9.99
2023-02-11T13:26:19.527Z,10.05
2023-02-11T13:28:56.962Z,10.06
2023-02-11T13:31:27.050Z,10.04
2023-02-11T13:33:53.695Z,10.05
2023-02-11T13:36:24.752Z,10.05
2023-02-11T13:38:55.952Z,10.06
2023-02-11T13:41:27.786Z,10.04
2023-02-11T13:44:03.873Z,10.00
2023-02-11T13:46:50.961Z,9.94
2023-02-11T13:49:40.940Z,9.97
2023-02-11T13:52:23.629Z,10.02
2023-02-11T13:54:53.323Z,10.05
2023-02-11T13:57:19.754Z,10.02
2023-02-11T13:59:49.723Z,9.96
2023-02-11T14:02:36.007Z,9.94
2023-02-11T14:05:22.117Z,9.91
2023-02-11T14:08:44.652Z,9.89
2023-02-11T14:11:25.206Z,9.85
2023-02-11T14:13:51.745Z,9.83
2023-02-11T14:16:35.583Z,9.81
2023-02-11T14:19:03.237Z,9.83
2023-02-11T14:21:35.601Z,9.81
2023-02-11T14:24:02.121Z,9.83
2023-02-11T14:26:42.450Z,9.86
2023-02-11T14:29:19.904Z,9.88
2023-02-11T14:32:05.656Z,9.88
2023-02-11T14:34:54.193Z,9.89
2023-02-11T14:37:50.313Z,9.92
2023-02-11T14:40:30.772Z,9.92
2023-02-11T14:43:18.554Z,9.95
2023-02-11T14:46:42.128Z,9.96
2023-02-11T14:49:47.642Z,9.98
2023-02-11T14:52:27.513Z,9.97
2023-02-11T14:55:06.583Z,9.96
2023-02-11T14:57:33.529Z,9.96
2023-02-11T15:00:04.341Z,9.96
2023-02-11T15:02:37.008Z,9.93
2023-02-11T15:05:23.687Z,9.91
2023-02-11T15:07:54.691Z,9.91
2023-02-11T15:10:29.931Z,9.91
2023-02-11T15:12:57.875Z,9.87
2023-02-11T15:15:26.140Z,9.86
2023-02-11T15:17:53.453Z,9.83
2023-02-11T15:20:24.975Z,9.78
2023-02-11T15:22:58.907Z,9.71
2023-02-11T15:25:27.871Z,9.66
2023-02-11T15:27:57.085Z,9.61
2023-02-11T15:30:24.854Z,9.58
2023-02-11T15:32:58.803Z,9.55
2023-02-11T15:35:28.668Z,9.51
2023-02-11T15:37:57.530Z,9.49
2023-02-11T15:40:27.985Z,9.47
2023-02-11T15:42:58.669Z,9.45
2023-02-11T15:45:30.785Z,9.41
2023-02-11T15:48:11.788Z,9.38
2023-02-11T15:50:41.111Z,9.36
2023-02-11T15:53:25.678Z,9.33
2023-02-11T15:56:00.983Z,9.30
2023-02-11T15:58:27.601Z,9.24
2023-02-11T16:00:59.738Z,9.24
2023-02-11T16:03:32.608Z,9.21
2023-02-11T16:06:23.985Z,9.20
2023-02-11T16:08:58.831Z,9.17
2023-02-11T16:11:32.521Z,9.12
2023-02-11T16:14:01.849Z,9.07
2023-02-11T16:16:31.961Z,9.06
2023-02-11T16:21:45.526Z,8.98
2023-02-11T16:24:21.760Z,8.94
2023-02-11T16:26:53.293Z,8.92
2023-02-11T16:29:25.214Z,8.89
2023-02-11T16:31:53.576Z,8.88
2023-02-11T16:34:22.925Z,8.86
2023-02-11T16:36:51.710Z,8.83
2023-02-11T16:39:22.507Z,8.82
2023-02-11T16:41:51.862Z,8.81
2023-02-11T16:44:18.770Z,8.78
2023-02-11T16:46:45.668Z,8.77
2023-02-11T16:49:20.031Z,8.76
2023-02-11T16:51:50.223Z,8.72
2023-02-11T16:54:18.267Z,8.71
2023-02-11T16:56:45.624Z,8.71
2023-02-11T16:59:13.688Z,8.70
2023-02-11T17:01:42.529Z,8.69
2023-02-11T17:04:30.907Z,8.67
2023-02-11T17:06:58.679Z,8.64
2023-02-11T17:09:30.464Z,8.62
2023-02-11T17:11:58.755Z,8.62
2023-02-11T17:14:25.506Z,8.62
2023-02-11T17:16:52.347Z,8.60
2023-02-11T17:19:22.185Z,8.56
2023-02-11T17:21:51.441Z,8.54
2023-02-11T17:24:19.617Z,8.54
2023-02-11T17:26:47.317Z,8.52
2023-02-11T17:29:17.437Z,8.51
2023-02-11T17:31:44.467Z,8.50
2023-02-11T17:34:11.671Z,8.47
2023-02-11T17:36:38.415Z,8.44
2023-02-11T17:39:08.153Z,8.44
2023-02-11T17:41:36.221Z,8.41
2023-02-11T17:44:03.118Z,8.38
2023-02-11T17:46:29.696Z,8.37
2023-02-11T17:48:58.840Z,8.38
2023-02-11T17:51:29.304Z,8.34
2023-02-11T17:57:02.625Z,8.31
2023-02-11T17:59:35.239Z,8.29
2023-02-11T18:02:03.868Z,8.26
2023-02-11T18:04:31.405Z,8.25
2023-02-11T18:06:59.017Z,8.24
2023-02-11T18:09:26.605Z,8.23
2023-02-11T18:11:53.472Z,8.27
2023-02-11T18:14:21.845Z,8.26
2023-02-11T18:16:51.239Z,8.24
2023-02-11T18:19:18.577Z,8.22
2023-02-11T18:21:48.740Z,8.21
2023-02-11T18:24:16.470Z,8.19
2023-02-11T18:26:43.435Z,8.18
2023-02-11T18:29:10.164Z,8.15
2023-02-11T18:31:37.825Z,8.15
2023-02-11T18:34:07.876Z,8.13
2023-02-11T18:36:34.880Z,8.11
2023-02-11T18:39:01.433Z,8.10
2023-02-11T18:41:28.166Z,8.09
2023-02-11T18:44:00.472Z,8.09
2023-02-11T18:46:27.160Z,8.09
2023-02-11T18:48:56.069Z,8.10
2023-02-11T18:51:23.174Z,8.10
2023-02-11T18:53:49.888Z,8.08
2023-02-11T18:56:20.744Z,8.07
2023-02-11T18:58:47.841Z,8.08
2023-02-11T19:01:19.615Z,8.06
2023-02-11T19:03:46.759Z,8.06
2023-02-11T19:06:16.715Z,8.05
2023-02-11T19:08:44.967Z,8.06
2023-02-11T19:11:12.666Z,8.05
2023-02-11T19:13:39.285Z,8.04
2023-02-11T19:16:11.172Z,8.03
2023-02-11T19:18:38.787Z,8.01
2023-02-11T19:21:09.436Z,7.99
2023-02-11T19:23:36.767Z,7.97
2023-02-11T19:26:04.678Z,7.98
2023-02-11T19:28:32.059Z,7.95
2023-02-11T19:31:04.616Z,7.93
2023-02-11T19:33:31.192Z,7.95
2023-02-11T19:36:03.404Z,7.95
2023-02-11T19:38:29.937Z,7.96
2023-02-11T19:40:57.101Z,7.94
2023-02-11T19:43:24.010Z,7.95
2023-02-11T19:45:51.563Z,7.95
2023-02-11T19:48:18.263Z,7.96
2023-02-11T19:50:45.875Z,7.93
2023-02-11T19:53:12.419Z,7.92
2023-02-11T19:55:38.943Z,7.92
2023-02-11T19:58:05.550Z,7.90
2023-02-11T20:00:32.039Z,7.90
2023-02-11T20:02:58.717Z,7.92
2023-02-11T20:05:25.271Z,7.94
2023-02-11T20:07:52.839Z,7.94
2023-02-11T20:10:19.415Z,7.95
2023-02-11T20:12:45.935Z,7.95
2023-02-11T20:15:12.475Z,7.96
2023-02-11T20:17:38.984Z,7.94
2023-02-11T20:20:07.089Z,7.94
2023-02-11T20:22:33.827Z,7.93
2023-02-11T20:25:00.415Z,7.94
2023-02-11T20:27:29.413Z,7.94
2023-02-11T20:29:55.921Z,7.94
2023-02-11T20:32:22.524Z,7.95
2023-02-11T20:34:49.145Z,7.94
2023-02-11T20:37:15.825Z,7.93
2023-02-11T20:39:44.789Z,7.93
2023-02-11T20:42:13.176Z,7.92
2023-02-11T20:44:39.711Z,7.95
2023-02-11T20:47:06.562Z,7.95
2023-02-11T20:49:33.132Z,7.93
2023-02-11T20:51:59.683Z,7.93
2023-02-11T20:54:27.250Z,7.93
2023-02-11T20:56:54.319Z,7.90
2023-02-11T20:59:21.648Z,7.90
2023-02-11T21:01:50.872Z,7.88
2023-02-11T21:04:20.415Z,7.92
2023-02-11T21:06:49.495Z,7.94
2023-02-11T21:09:19.806Z,7.92
2023-02-11T21:11:48.504Z,7.89
2023-02-11T21:14:15.396Z,7.88
2023-02-11T21:16:42.322Z,7.92
2023-02-11T21:19:08.969Z,7.92
2023-02-11T21:21:37.698Z,7.92
2023-02-11T21:24:05.998Z,7.90
2023-02-11T21:26:32.964Z,7.89
2023-02-11T21:28:59.599Z,7.89
2023-02-11T21:31:28.806Z,7.88
2023-02-11T21:33:56.679Z,7.87
2023-02-11T21:36:23.814Z,7.86
2023-02-11T21:38:50.672Z,7.87
2023-02-11T21:41:18.587Z,7.87
2023-02-11T21:43:45.400Z,7.87
2023-02-11T21:46:14.566Z,7.86
2023-02-11T21:48:41.587Z,7.86
2023-02-11T21:51:11.437Z,7.86
2023-02-11T21:53:38.705Z,7.85
2023-02-11T21:56:07.396Z,7.85
2023-02-11T21:58:34.005Z,7.85
2023-02-11T22:01:00.974Z,7.83
2023-02-11T22:03:28.014Z,7.83
2023-02-11T22:05:55.055Z,7.82
2023-02-11T22:08:22.866Z,7.83
2023-02-11T22:10:49.432Z,7.84
2023-02-11T22:13:17.121Z,7.85
2023-02-11T22:15:43.716Z,7.85
2023-02-11T22:18:10.214Z,7.85
2023-02-11T22:20:36.819Z,7.85
2023-02-11T22:23:03.380Z,7.83
2023-02-11T22:25:30.008Z,7.84
2023-02-11T22:27:56.644Z,7.83
2023-02-11T22:30:23.190Z,7.80
2023-02-11T22:32:49.802Z,7.80
2023-02-11T22:35:16.411Z,7.80
2023-02-11T22:37:42.943Z,7.83
2023-02-11T22:40:09.946Z,7.83
2023-02-11T22:42:36.514Z,7.81
2023-02-11T22:45:04.158Z,7.80
2023-02-11T22:47:30.702Z,7.79
2023-02-11T22:49:57.221Z,7.80
2023-02-11T22:52:23.812Z,7.81
2023-02-11T22:54:51.719Z,7.79
2023-02-11T22:57:18.208Z,7.79
2023-02-11T22:59:44.833Z,7.79
2023-02-11T23:02:11.488Z,7.77
2023-02-11T23:04:38.202Z,7.77
2023-02-11T23:07:04.749Z,7.75
2023-02-11T23:09:31.372Z,7.76
2023-02-11T23:11:57.990Z,7.75
2023-02-11T23:14:24.860Z,7.75
2023-02-11T23:16:51.573Z,7.74
2023-02-11T23:19:19.309Z,7.72
2023-02-11T23:21:45.948Z,7.70
2023-02-11T23:24:14.343Z,7.73
2023-02-11T23:26:43.812Z,7.74
2023-02-11T23:29:12.237Z,7.73
2023-02-11T23:31:41.031Z,7.72
2023-02-11T23:34:08.291Z,7.69
2023-02-11T23:36:35.089Z,7.67
2023-02-11T23:39:01.635Z,7.66
2023-02-11T23:41:28.235Z,7.68
2023-02-11T23:43:56.763Z,7.66
2023-02-11T23:46:24.979Z,7.68
2023-02-11T23:48:52.274Z,7.66
2023-02-11T23:51:19.651Z,7.67
2023-02-11T23:53:46.397Z,7.66
2023-02-11T23:56:17.191Z,7.69
2023-02-11T23:58:44.837Z,7.68
